Portada
METAR-TAF:

METAR-TAF

Aeroports :

St. Charles County Airport (Smart Field)

St. Charles, Missouri, Estats Units d'Amèrica

latitud: 38-55-50N, longitud: 090-25-57W, altitud: 133 m

Observació

L'informe es va fer fa 19 minuts, a les 15:54 UTC
Vent 10 kt del Sud
Temperatura 31°C
Humitat 49%
Pressió 1023 hPa
Visibilitat: 16.1 km
Núvols disperses a una alçada de 4800 ft

METAR: KSET 191554Z AUTO 18010KT 10SM SCT048 31/19 A3020 RMK AO2 SLP220 T03110194

Hora: 11:13 (16:13 UTC)


TAF: manca

Observacions i pronòstics meteorològics de més de 4000 aeroports (METAR i TAF).

Les estacions disponibles són els punts grocs i vermells al mapa.

Posi el ratolí al punt desitjat per veure el nom de l'estació.

Feu clic per veure les observacions i els pronòstics meteorològics.

Per canviar el mapa: feu clic els botons verds amb una creu de color negre per apropar; al botó verd amb un guió per allunyar la imatge; o en les fletxes verdes per a mapes adjacents.


METAR-TAF: